createdAt,value
2023-02-09T00:01:31.533Z,1.39
2023-02-09T00:03:59.959Z,1.36
2023-02-09T00:06:29.787Z,1.35
2023-02-09T00:08:58.456Z,1.35
2023-02-09T00:11:48.184Z,1.33
2023-02-09T00:14:20.298Z,1.31
2023-02-09T00:16:48.976Z,1.29
2023-02-09T00:19:15.842Z,1.28
2023-02-09T00:21:42.612Z,1.26
2023-02-09T00:24:10.758Z,1.24
2023-02-09T00:26:38.800Z,1.21
2023-02-09T00:29:06.603Z,1.18
2023-02-09T00:31:34.251Z,1.17
2023-02-09T00:34:01.853Z,1.15
2023-02-09T00:36:29.236Z,1.14
2023-02-09T00:38:56.616Z,1.11
2023-02-09T00:41:43.343Z,1.10
2023-02-09T00:44:12.176Z,1.09
2023-02-09T00:46:38.988Z,1.07
2023-02-09T00:49:05.803Z,1.07
2023-02-09T00:51:32.601Z,1.05
2023-02-09T00:53:59.442Z,1.05
2023-02-09T00:56:26.265Z,1.05
2023-02-09T00:58:53.031Z,1.04
2023-02-09T01:01:19.854Z,1.02
2023-02-09T01:03:47.228Z,1.02
2023-02-09T01:06:13.977Z,1.02
2023-02-09T01:08:40.745Z,1.03
2023-02-09T01:11:12.673Z,1.04
2023-02-09T01:13:39.942Z,1.04
2023-02-09T01:16:17.029Z,1.06
2023-02-09T01:18:44.023Z,1.05
2023-02-09T01:21:16.578Z,1.06
2023-02-09T01:23:43.641Z,1.08
2023-02-09T01:26:14.875Z,1.07
2023-02-09T01:28:42.013Z,1.07
2023-02-09T01:31:30.856Z,1.10
2023-02-09T01:34:00.404Z,1.09
2023-02-09T01:36:28.951Z,1.08
2023-02-09T01:38:58.768Z,1.09
2023-02-09T01:41:26.340Z,1.10
2023-02-09T01:44:05.674Z,1.12
2023-02-09T01:46:35.637Z,1.10
2023-02-09T01:49:17.630Z,1.11
2023-02-09T01:51:49.094Z,1.11
2023-02-09T01:54:24.019Z,1.11
2023-02-09T01:56:56.627Z,1.10
2023-02-09T01:59:23.824Z,1.12
2023-02-09T02:01:52.321Z,1.12
2023-02-09T02:04:20.804Z,1.12
2023-02-09T02:06:48.275Z,1.12
2023-02-09T02:09:17.552Z,1.12
2023-02-09T02:11:47.448Z,1.12
2023-02-09T02:14:36.460Z,1.12
2023-02-09T02:17:21.690Z,1.11
2023-02-09T02:20:16.107Z,1.10
2023-02-09T02:23:28.835Z,1.06
2023-02-09T02:26:33.317Z,1.03
2023-02-09T02:29:28.800Z,1.03
2023-02-09T02:32:31.103Z,1.01
2023-02-09T02:35:16.425Z,1.02
2023-02-09T02:38:05.929Z,1.02
2023-02-09T02:40:49.871Z,1.00
2023-02-09T02:43:19.305Z,0.99
2023-02-09T02:46:04.742Z,0.99
2023-02-09T02:48:51.668Z,0.99
2023-02-09T02:51:33.367Z,0.97
2023-02-09T02:54:10.565Z,0.97
2023-02-09T02:56:42.156Z,0.97
2023-02-09T02:59:14.569Z,0.95
2023-02-09T03:01:47.935Z,0.95
2023-02-09T03:04:16.087Z,0.94
2023-02-09T03:06:42.864Z,0.93
2023-02-09T03:09:09.767Z,0.93
2023-02-09T03:11:42.068Z,0.94
2023-02-09T03:14:28.089Z,0.92
2023-02-09T03:17:37.179Z,0.92
2023-02-09T03:20:16.062Z,0.88
2023-02-09T03:22:49.192Z,0.88
2023-02-09T03:25:22.837Z,0.88
2023-02-09T03:28:08.138Z,0.87
2023-02-09T03:30:35.938Z,0.85
2023-02-09T03:33:04.472Z,0.86
2023-02-09T03:35:40.111Z,0.84
2023-02-09T03:38:07.233Z,0.82
2023-02-09T03:40:35.020Z,0.83
2023-02-09T03:43:01.811Z,0.82
2023-02-09T03:45:28.632Z,0.80
2023-02-09T03:47:55.388Z,0.81
2023-02-09T03:50:22.160Z,0.79
2023-02-09T03:52:48.918Z,0.78
2023-02-09T03:55:15.685Z,0.76
2023-02-09T03:57:42.464Z,0.76
2023-02-09T04:00:10.337Z,0.74
2023-02-09T04:02:37.283Z,0.73
2023-02-09T04:05:05.849Z,0.72
2023-02-09T04:07:32.982Z,0.71
2023-02-09T04:09:59.757Z,0.70
2023-02-09T04:12:26.524Z,0.69
2023-02-09T04:14:53.287Z,0.69
2023-02-09T04:17:20.062Z,0.67
2023-02-09T04:19:46.830Z,0.67
2023-02-09T04:22:13.626Z,0.67
2023-02-09T04:24:40.382Z,0.67
2023-02-09T04:27:07.143Z,0.67
2023-02-09T04:29:33.982Z,0.67
2023-02-09T04:32:00.941Z,0.66
2023-02-09T04:34:27.809Z,0.67
2023-02-09T04:36:54.593Z,0.66
2023-02-09T04:39:21.367Z,0.65
2023-02-09T04:41:48.159Z,0.64
2023-02-09T04:44:14.940Z,0.64
2023-02-09T04:46:42.301Z,0.64
2023-02-09T04:49:10.036Z,0.61
2023-02-09T04:51:36.940Z,0.62
2023-02-09T04:54:03.746Z,0.59
2023-02-09T04:56:30.528Z,0.59
2023-02-09T04:59:15.713Z,0.56
2023-02-09T05:01:42.479Z,0.54
2023-02-09T05:04:09.260Z,0.52
2023-02-09T05:06:36.049Z,0.49
2023-02-09T05:09:03.149Z,0.49
2023-02-09T05:11:29.948Z,0.48
2023-02-09T05:13:56.727Z,0.47
2023-02-09T05:16:23.688Z,0.44
2023-02-09T05:18:51.026Z,0.44
2023-02-09T05:21:17.837Z,0.44
2023-02-09T05:23:44.586Z,0.43
2023-02-09T05:26:11.341Z,0.41
2023-02-09T05:28:38.188Z,0.42
2023-02-09T05:31:05.089Z,0.41
2023-02-09T05:33:31.929Z,0.40
2023-02-09T05:35:58.774Z,0.41
2023-02-09T05:38:25.638Z,0.40
2023-02-09T05:40:52.423Z,0.39
2023-02-09T05:43:19.436Z,0.38
2023-02-09T05:45:46.608Z,0.38
2023-02-09T05:48:13.440Z,0.37
2023-02-09T05:50:40.306Z,0.37
2023-02-09T05:53:08.462Z,0.36
2023-02-09T05:55:35.262Z,0.35
2023-02-09T05:58:02.044Z,0.35
2023-02-09T06:00:29.831Z,0.35
2023-02-09T06:02:56.933Z,0.36
2023-02-09T06:05:23.762Z,0.35
2023-02-09T06:07:50.762Z,0.35
2023-02-09T06:10:18.705Z,0.37
2023-02-09T06:12:45.543Z,0.36
2023-02-09T06:15:13.304Z,0.37
2023-02-09T06:17:40.098Z,0.38
2023-02-09T06:20:08.181Z,0.39
2023-02-09T06:22:34.943Z,0.40
2023-02-09T06:25:01.731Z,0.42
2023-02-09T06:27:28.526Z,0.44
2023-02-09T06:29:55.279Z,0.43
2023-02-09T06:32:22.088Z,0.45
2023-02-09T06:34:48.863Z,0.48
2023-02-09T06:37:15.752Z,0.49
2023-02-09T06:39:42.577Z,0.52
2023-02-09T06:42:09.350Z,0.55
2023-02-09T06:44:36.120Z,0.58
2023-02-09T06:47:03.196Z,0.59
2023-02-09T06:49:29.966Z,0.62
2023-02-09T06:51:56.855Z,0.64
2023-02-09T06:54:24.464Z,0.66
2023-02-09T06:56:51.244Z,0.68
2023-02-09T06:59:18.148Z,0.69
2023-02-09T07:01:44.931Z,0.71
2023-02-09T07:04:12.624Z,0.73
2023-02-09T07:06:39.410Z,0.76
2023-02-09T07:09:06.183Z,0.80
2023-02-09T07:11:32.959Z,0.82
2023-02-09T07:13:59.970Z,0.87
2023-02-09T07:16:26.919Z,0.93
2023-02-09T07:18:53.794Z,0.98
2023-02-09T07:21:21.393Z,1.02
2023-02-09T07:23:48.833Z,1.08
2023-02-09T07:26:17.438Z,1.13
2023-02-09T07:28:44.917Z,1.20
2023-02-09T07:31:15.246Z,1.29
2023-02-09T07:33:42.604Z,1.40
2023-02-09T07:36:12.134Z,1.58
2023-02-09T07:38:39.865Z,1.75
2023-02-09T07:41:08.313Z,1.94
2023-02-09T07:43:35.397Z,2.12
2023-02-09T07:46:07.932Z,2.30
2023-02-09T07:48:36.531Z,2.44
2023-02-09T07:51:04.006Z,2.52
2023-02-09T07:53:30.812Z,2.57
2023-02-09T07:55:57.644Z,2.63
2023-02-09T07:58:24.603Z,2.66
2023-02-09T08:00:51.760Z,2.72
2023-02-09T08:03:23.832Z,2.79
2023-02-09T08:06:19.628Z,2.86
2023-02-09T08:08:48.648Z,2.90
2023-02-09T08:11:22.323Z,2.96
2023-02-09T08:13:50.787Z,3.02
2023-02-09T08:16:24.830Z,3.15
2023-02-09T08:19:00.463Z,3.28
2023-02-09T08:21:29.463Z,3.37
2023-02-09T08:23:58.742Z,3.47
2023-02-09T08:26:25.625Z,3.55
2023-02-09T08:28:53.796Z,3.64
2023-02-09T08:31:21.931Z,3.70
2023-02-09T08:33:50.534Z,3.76
2023-02-09T08:36:19.372Z,3.80
2023-02-09T08:38:47.985Z,3.85
2023-02-09T08:41:17.282Z,3.88
2023-02-09T08:43:49.224Z,3.93
2023-02-09T08:46:16.509Z,3.96
2023-02-09T08:48:45.283Z,3.99
2023-02-09T08:51:13.694Z,3.99
2023-02-09T08:53:41.007Z,4.02
2023-02-09T08:56:08.688Z,4.06
2023-02-09T08:58:35.554Z,4.09
2023-02-09T09:01:02.592Z,4.11
2023-02-09T09:03:31.738Z,4.15
2023-02-09T09:06:01.253Z,4.18
2023-02-09T09:08:29.126Z,4.21
2023-02-09T09:10:56.103Z,4.23
2023-02-09T09:13:24.230Z,4.25
2023-02-09T09:15:52.489Z,4.30
2023-02-09T09:18:19.396Z,4.32
2023-02-09T09:20:46.157Z,4.37
2023-02-09T09:23:13.742Z,4.42
2023-02-09T09:25:41.017Z,4.46
2023-02-09T09:28:08.901Z,4.49
2023-02-09T09:30:36.366Z,4.56
2023-02-09T09:33:03.639Z,4.61
2023-02-09T09:35:31.167Z,4.66
2023-02-09T09:37:58.448Z,4.71
2023-02-09T09:40:29.810Z,4.77
2023-02-09T09:43:04.210Z,4.82
2023-02-09T09:45:35.277Z,4.85
2023-02-09T09:48:02.490Z,4.89
2023-02-09T09:50:42.027Z,4.98
2023-02-09T09:53:35.386Z,5.03
2023-02-09T09:56:07.081Z,5.06
2023-02-09T09:58:39.606Z,5.14
2023-02-09T10:01:11.652Z,5.19
2023-02-09T10:03:38.607Z,5.24
2023-02-09T10:06:21.590Z,5.30
2023-02-09T10:08:57.298Z,5.34
2023-02-09T10:11:43.151Z,5.39
2023-02-09T10:14:10.365Z,5.41
2023-02-09T10:16:40.441Z,5.45
2023-02-09T10:19:23.572Z,5.50
2023-02-09T10:21:50.536Z,5.51
2023-02-09T10:24:32.769Z,5.58
2023-02-09T10:27:31.023Z,5.60
2023-02-09T10:30:22.977Z,5.63
2023-02-09T10:32:49.800Z,5.66
2023-02-09T10:35:27.948Z,5.73
2023-02-09T10:38:04.105Z,5.78
2023-02-09T10:40:40.334Z,5.83
2023-02-09T10:43:21.923Z,5.87
2023-02-09T10:45:55.867Z,5.92
2023-02-09T10:48:24.796Z,5.91
2023-02-09T10:50:56.010Z,5.93
2023-02-09T10:53:33.579Z,5.99
2023-02-09T10:56:12.130Z,6.06
2023-02-09T10:58:39.426Z,6.11
2023-02-09T11:01:09.437Z,6.15
2023-02-09T11:03:46.287Z,6.20
2023-02-09T11:06:19.508Z,6.24
2023-02-09T11:08:59.596Z,6.27
2023-02-09T11:11:32.852Z,6.29
2023-02-09T11:14:00.764Z,6.33
2023-02-09T11:16:54.667Z,6.39
2023-02-09T11:19:31.121Z,6.42
2023-02-09T11:22:41.329Z,6.47
2023-02-09T11:25:37.121Z,6.51
2023-02-09T11:28:28.665Z,6.57
2023-02-09T11:31:39.375Z,6.60
2023-02-09T11:34:40.212Z,6.65
2023-02-09T11:37:50.267Z,6.67
2023-02-09T11:40:33.515Z,6.71
2023-02-09T11:43:17.402Z,6.71
2023-02-09T11:45:53.187Z,6.75
2023-02-09T11:48:26.020Z,6.78
2023-02-09T11:50:58.493Z,6.82
2023-02-09T11:53:59.562Z,6.88
2023-02-09T11:56:28.796Z,6.91
2023-02-09T11:59:26.876Z,6.96
2023-02-09T12:02:37.318Z,6.99
2023-02-09T12:05:05.641Z,7.00
2023-02-09T12:08:05.424Z,7.07
2023-02-09T12:10:49.133Z,7.10
2023-02-09T12:13:43.981Z,7.14
2023-02-09T12:16:13.639Z,7.15
2023-02-09T12:18:42.224Z,7.17
2023-02-09T12:21:09.679Z,7.25
2023-02-09T12:23:41.505Z,7.32
2023-02-09T12:26:17.466Z,7.39
2023-02-09T12:29:22.617Z,7.47
2023-02-09T12:32:01.574Z,7.50
2023-02-09T12:34:41.383Z,7.53
2023-02-09T12:37:14.273Z,7.59
2023-02-09T12:40:12.056Z,7.67
2023-02-09T12:43:02.169Z,7.71
2023-02-09T12:45:43.788Z,7.78
2023-02-09T12:48:13.640Z,7.84
2023-02-09T12:50:43.500Z,7.90
2023-02-09T12:53:22.209Z,7.94
2023-02-09T12:56:08.928Z,7.98
2023-02-09T12:58:44.756Z,8.01
2023-02-09T13:01:16.456Z,8.05
2023-02-09T13:04:05.253Z,8.06
2023-02-09T13:06:47.959Z,8.08
2023-02-09T13:09:28.886Z,8.10
2023-02-09T13:12:14.530Z,8.13
2023-02-09T13:14:47.476Z,8.14
2023-02-09T13:17:28.795Z,8.17
2023-02-09T13:20:35.948Z,8.19
2023-02-09T13:23:40.333Z,8.17
2023-02-09T13:26:26.325Z,8.17
2023-02-09T13:29:20.843Z,8.17
2023-02-09T13:32:03.858Z,8.12
2023-02-09T13:35:04.828Z,8.09
2023-02-09T13:37:49.535Z,8.09
2023-02-09T13:40:33.607Z,8.07
2023-02-09T13:43:18.862Z,8.06
2023-02-09T13:45:51.738Z,8.06
2023-02-09T13:48:38.882Z,8.07
2023-02-09T13:51:20.645Z,8.09
2023-02-09T13:54:00.147Z,8.09
2023-02-09T13:56:28.624Z,8.07
2023-02-09T13:58:55.970Z,8.08
2023-02-09T14:01:30.266Z,8.10
2023-02-09T14:04:09.950Z,8.10
2023-02-09T14:06:48.982Z,8.09
2023-02-09T14:09:24.622Z,8.07
2023-02-09T14:11:56.536Z,8.07
2023-02-09T14:15:11.208Z,8.04
2023-02-09T14:17:38.962Z,8.01
2023-02-09T14:20:22.362Z,7.98
2023-02-09T14:23:01.161Z,7.97
2023-02-09T14:25:30.350Z,7.94
2023-02-09T14:27:58.236Z,7.95
2023-02-09T14:30:31.992Z,7.95
2023-02-09T14:33:03.277Z,7.94
2023-02-09T14:35:41.114Z,7.93
2023-02-09T14:38:42.698Z,7.91
2023-02-09T14:41:32.312Z,7.88
2023-02-09T14:44:21.459Z,7.86
2023-02-09T14:46:57.017Z,7.84
2023-02-09T14:49:24.831Z,7.81
2023-02-09T14:52:02.285Z,7.81
2023-02-09T14:54:33.167Z,7.79
2023-02-09T14:57:01.095Z,7.74
2023-02-09T14:59:28.104Z,7.72
2023-02-09T15:01:55.521Z,7.70
2023-02-09T15:04:22.324Z,7.65
2023-02-09T15:06:59.846Z,7.63
2023-02-09T15:09:33.749Z,7.59
2023-02-09T15:12:07.125Z,7.54
2023-02-09T15:14:45.735Z,7.51
2023-02-09T15:17:18.276Z,7.47
2023-02-09T15:19:46.201Z,7.42
2023-02-09T15:22:16.085Z,7.39
2023-02-09T15:24:44.832Z,7.36
2023-02-09T15:27:36.318Z,7.31
2023-02-09T15:30:14.092Z,7.28
2023-02-09T15:32:40.875Z,7.22
2023-02-09T15:35:08.213Z,7.18
2023-02-09T15:37:37.473Z,7.14
2023-02-09T15:40:55.470Z,7.08
2023-02-09T15:43:42.132Z,7.01
2023-02-09T15:46:28.510Z,6.96
2023-02-09T15:48:55.421Z,6.88
2023-02-09T15:51:28.604Z,6.84
2023-02-09T15:53:58.982Z,6.80
2023-02-09T15:56:25.890Z,6.74
2023-02-09T15:58:54.327Z,6.69
2023-02-09T16:01:21.166Z,6.65
2023-02-09T16:03:48.027Z,6.60
2023-02-09T16:06:19.881Z,6.56
2023-02-09T16:08:48.200Z,6.51
2023-02-09T16:11:27.111Z,6.46
2023-02-09T16:13:54.635Z,6.40
2023-02-09T16:16:21.457Z,6.35
2023-02-09T16:18:48.255Z,6.29
2023-02-09T16:21:30.615Z,6.24
2023-02-09T16:24:01.129Z,6.19
2023-02-09T16:26:30.128Z,6.16
2023-02-09T16:28:57.376Z,6.12
2023-02-09T16:31:25.353Z,6.07
2023-02-09T16:33:52.531Z,6.04
2023-02-09T16:36:23.746Z,6.02
2023-02-09T16:38:50.914Z,5.98
2023-02-09T16:41:37.208Z,5.94
2023-02-09T16:44:26.614Z,5.91
2023-02-09T16:46:55.945Z,5.84
2023-02-09T16:49:40.603Z,5.82
2023-02-09T16:52:17.567Z,5.76
2023-02-09T16:54:58.428Z,5.72
2023-02-09T16:57:26.974Z,5.71
2023-02-09T16:59:54.843Z,5.68
2023-02-09T17:02:41.575Z,5.68
2023-02-09T17:05:19.317Z,5.70
2023-02-09T17:07:54.924Z,5.70
2023-02-09T17:10:28.137Z,5.73
2023-02-09T17:12:54.957Z,5.76
2023-02-09T17:15:30.592Z,5.82
2023-02-09T17:18:03.120Z,5.87
2023-02-09T17:20:43.185Z,5.89
2023-02-09T17:23:21.329Z,5.93
2023-02-09T17:25:50.756Z,5.96
2023-02-09T17:28:19.152Z,5.98
2023-02-09T17:30:47.715Z,6.02
2023-02-09T17:33:23.849Z,6.05
2023-02-09T17:38:44.523Z,6.09
2023-02-09T17:41:21.632Z,6.13
2023-02-09T17:43:50.721Z,6.15
2023-02-09T17:46:20.147Z,6.20
2023-02-09T17:48:47.857Z,6.24
2023-02-09T17:51:31.560Z,6.28
2023-02-09T17:53:58.327Z,6.33
2023-02-09T17:56:25.195Z,6.35
2023-02-09T17:58:51.991Z,6.38
2023-02-09T18:01:27.599Z,6.42
2023-02-09T18:03:57.699Z,6.47
2023-02-09T18:06:35.316Z,6.50
2023-02-09T18:09:09.927Z,6.52
2023-02-09T18:11:52.058Z,6.55
2023-02-09T18:14:21.436Z,6.56
2023-02-09T18:16:48.827Z,6.58
2023-02-09T18:19:17.777Z,6.60
2023-02-09T18:21:58.200Z,6.65
2023-02-09T18:24:29.018Z,6.67
2023-02-09T18:26:56.186Z,6.67
2023-02-09T18:29:26.055Z,6.71
2023-02-09T18:31:52.823Z,6.72
2023-02-09T18:34:20.526Z,6.74
2023-02-09T18:36:47.304Z,6.76
2023-02-09T18:39:17.275Z,6.78
2023-02-09T18:41:46.204Z,6.80
2023-02-09T18:44:13.082Z,6.81
2023-02-09T18:46:42.049Z,6.83
2023-02-09T18:49:12.505Z,6.85
2023-02-09T18:51:39.276Z,6.85
2023-02-09T18:54:06.101Z,6.87
2023-02-09T18:56:33.078Z,6.88
2023-02-09T18:58:59.842Z,6.89
2023-02-09T19:01:26.686Z,6.92
2023-02-09T19:03:54.068Z,6.92
2023-02-09T19:06:22.683Z,6.94
2023-02-09T19:08:50.184Z,6.96
2023-02-09T19:11:21.292Z,6.98
2023-02-09T19:14:07.576Z,7.00
2023-02-09T19:16:37.182Z,7.00
2023-02-09T19:19:04.310Z,7.02
2023-02-09T19:21:32.199Z,7.02
2023-02-09T19:23:59.089Z,7.05
2023-02-09T19:26:25.867Z,7.08
2023-02-09T19:28:52.696Z,7.09
2023-02-09T19:31:19.558Z,7.10
2023-02-09T19:33:46.400Z,7.12
2023-02-09T19:36:13.274Z,7.12
2023-02-09T19:38:40.092Z,7.14
2023-02-09T19:41:11.905Z,7.16
2023-02-09T19:43:39.909Z,7.16
2023-02-09T19:46:07.650Z,7.18
2023-02-09T19:48:37.271Z,7.18
2023-02-09T19:51:04.241Z,7.18
2023-02-09T19:53:31.508Z,7.18
2023-02-09T19:55:58.312Z,7.19
2023-02-09T19:58:25.248Z,7.19
2023-02-09T20:00:53.611Z,7.19
2023-02-09T20:03:20.429Z,7.19
2023-02-09T20:05:47.584Z,7.22
2023-02-09T20:08:17.687Z,7.22
2023-02-09T20:10:45.295Z,7.20
2023-02-09T20:13:13.220Z,7.21
2023-02-09T20:15:42.197Z,7.20
2023-02-09T20:18:09.312Z,7.19
2023-02-09T20:20:40.342Z,7.20
2023-02-09T20:23:09.061Z,7.19
2023-02-09T20:25:35.840Z,7.18
2023-02-09T20:28:02.819Z,7.18
2023-02-09T20:30:29.669Z,7.16
2023-02-09T20:32:56.424Z,7.15
2023-02-09T20:35:23.252Z,7.16
2023-02-09T20:37:52.667Z,7.14
2023-02-09T20:40:20.034Z,7.15
2023-02-09T20:43:05.256Z,7.15
2023-02-09T20:45:50.410Z,7.13
2023-02-09T20:48:17.459Z,7.13
2023-02-09T20:50:45.180Z,7.16
2023-02-09T20:53:12.511Z,7.18
2023-02-09T20:55:39.341Z,7.19
2023-02-09T20:58:06.287Z,7.23
2023-02-09T21:00:35.692Z,7.24
2023-02-09T21:03:02.521Z,7.25
2023-02-09T21:05:29.397Z,7.26
2023-02-09T21:07:56.223Z,7.28
2023-02-09T21:10:23.475Z,7.30
2023-02-09T21:12:50.326Z,7.30
2023-02-09T21:15:17.159Z,7.31
2023-02-09T21:17:47.875Z,7.33
2023-02-09T21:20:18.012Z,7.34
2023-02-09T21:22:44.778Z,7.35
2023-02-09T21:25:11.578Z,7.35
2023-02-09T21:27:38.947Z,7.36
2023-02-09T21:30:06.477Z,7.38
2023-02-09T21:32:34.916Z,7.39
2023-02-09T21:35:01.733Z,7.41
2023-02-09T21:37:31.896Z,7.43
2023-02-09T21:40:02.758Z,7.42
2023-02-09T21:42:31.164Z,7.43
2023-02-09T21:44:59.456Z,7.44
2023-02-09T21:47:27.977Z,7.45
2023-02-09T21:49:54.929Z,7.46
2023-02-09T21:52:21.969Z,7.46
2023-02-09T21:54:48.921Z,7.47
2023-02-09T21:57:15.927Z,7.47
2023-02-09T21:59:42.996Z,7.47
2023-02-09T22:02:16.635Z,7.47
2023-02-09T22:04:44.757Z,7.46
2023-02-09T22:07:12.974Z,7.47
2023-02-09T22:09:40.246Z,7.48
2023-02-09T22:12:07.658Z,7.49
2023-02-09T22:14:34.451Z,7.50
2023-02-09T22:17:01.260Z,7.49
2023-02-09T22:19:28.029Z,7.51
2023-02-09T22:21:57.592Z,7.50
2023-02-09T22:24:24.811Z,7.49
2023-02-09T22:26:51.618Z,7.50
2023-02-09T22:29:18.389Z,7.49
2023-02-09T22:31:45.781Z,7.51
2023-02-09T22:34:12.699Z,7.50
2023-02-09T22:36:39.679Z,7.48
2023-02-09T22:39:07.829Z,7.49
2023-02-09T22:41:35.229Z,7.49
2023-02-09T22:44:09.800Z,7.50
2023-02-09T22:46:39.128Z,7.48
2023-02-09T22:49:09.201Z,7.48
2023-02-09T22:51:36.595Z,7.48
2023-02-09T22:54:05.293Z,7.48
2023-02-09T22:56:32.879Z,7.46
2023-02-09T22:59:01.171Z,7.45
2023-02-09T23:01:28.796Z,7.41
2023-02-09T23:03:55.929Z,7.37
2023-02-09T23:06:26.889Z,7.35
2023-02-09T23:08:57.122Z,7.34
2023-02-09T23:11:23.982Z,7.30
2023-02-09T23:14:03.886Z,7.27
2023-02-09T23:16:35.664Z,7.26
2023-02-09T23:19:06.569Z,7.25
2023-02-09T23:21:39.856Z,7.25
2023-02-09T23:24:07.936Z,7.24
2023-02-09T23:26:35.190Z,7.23
2023-02-09T23:29:06.568Z,7.22
2023-02-09T23:31:34.018Z,7.22
2023-02-09T23:34:00.876Z,7.17
2023-02-09T23:36:30.986Z,7.14
2023-02-09T23:39:01.705Z,7.10
2023-02-09T23:41:29.159Z,7.08
2023-02-09T23:43:56.819Z,7.02
2023-02-09T23:46:28.726Z,6.99
2023-02-09T23:48:56.711Z,6.94
2023-02-09T23:51:33.891Z,6.92
2023-02-09T23:54:04.755Z,6.89
2023-02-09T23:56:36.909Z,6.87
2023-02-09T23:59:07.621Z,6.86
